Time;durP1;ratioP1;P1;durP2;ratioP2;P2;SDS_P1;SDS_P2;PMS_P1;PMS_P2;Temp;Humidity;BMP_temperature;BMP_pressure;BME280_temperature;BME280_humidity;BME280_pressure;Samples;Min_cycle;Max_cycle;Signal;HPM_P1;HPM_P2
2023/09/05 00:00:10;;;;;;;10.38;6.35;;;;;;;15.93;100.00;101996.53;6246175;23;20004;-78
2023/09/05 00:02:37;;;;;;;8.30;5.65;;;;;;;15.80;100.00;101994.84;6246475;23;20011;-79
2023/09/05 00:05:05;;;;;;;9.70;6.03;;;;;;;15.75;100.00;102000.34;6246196;23;20062;-79
2023/09/05 00:07:31;;;;;;;8.13;5.20;;;;;;;15.58;100.00;101975.38;6245976;23;20000;-79
2023/09/05 00:09:58;;;;;;;8.32;5.40;;;;;;;15.55;100.00;102001.63;6245965;23;20004;-79
2023/09/05 00:12:23;;;;;;;7.28;5.43;;;;;;;15.42;100.00;101980.75;6246223;23;20364;-78
2023/09/05 00:14:51;;;;;;;7.15;4.75;;;;;;;15.40;100.00;101994.81;6246002;23;20018;-78
2023/09/05 00:17:16;;;;;;;6.53;4.70;;;;;;;15.33;100.00;101989.16;6245873;23;20000;-78
2023/09/05 00:19:42;;;;;;;7.57;5.20;;;;;;;15.09;100.00;101964.72;6245941;23;20010;-79
2023/09/05 00:22:07;;;;;;;7.15;5.20;;;;;;;15.20;100.00;101985.69;6245565;23;20011;-78
2023/09/05 00:24:38;;;;;;;6.78;4.93;;;;;;;15.11;100.00;101971.47;6246142;23;20083;-78
2023/09/05 00:27:07;;;;;;;7.53;5.68;;;;;;;14.94;100.00;101945.69;6245532;23;20007;-79
2023/09/05 00:29:33;;;;;;;9.13;5.35;;;;;;;15.02;100.00;101982.47;6246163;23;20004;-78
2023/09/05 00:31:59;;;;;;;10.50;5.65;;;;;;;14.99;100.00;101990.47;6245717;23;20035;-78
2023/09/05 00:34:27;;;;;;;8.27;5.00;;;;;;;14.92;100.00;101992.63;6245475;23;20087;-78
2023/09/05 00:36:52;;;;;;;7.93;5.43;;;;;;;14.84;100.00;101988.81;6218185;23;20047;-78
2023/09/05 00:39:18;;;;;;;6.68;5.28;;;;;;;14.81;100.00;101992.47;6245803;23;20413;-79
2023/09/05 00:41:43;;;;;;;7.65;5.50;;;;;;;14.78;100.00;101994.44;6245840;23;20050;-78
2023/09/05 00:44:09;;;;;;;9.50;5.53;;;;;;;14.69;100.00;101990.63;6245872;23;20009;-78
2023/09/05 00:46:34;;;;;;;8.30;6.22;;;;;;;14.69;100.00;101995.81;6245721;23;20414;-79
2023/09/05 00:49:03;;;;;;;8.02;5.60;;;;;;;14.62;100.00;101995.34;6245622;23;20027;-78
2023/09/05 00:51:32;;;;;;;7.07;5.95;;;;;;;14.56;100.00;101998.34;6245802;23;20005;-79
2023/09/05 00:54:07;;;;;;;8.90;6.00;;;;;;;14.43;100.00;101989.56;6245353;23;20043;-79
2023/09/05 00:56:35;;;;;;;11.27;5.65;;;;;;;14.34;100.00;101990.13;6245812;23;20008;-79
2023/09/05 00:59:01;;;;;;;8.45;6.05;;;;;;;14.38;100.00;101991.63;6245621;23;20318;-78
2023/09/05 01:01:26;;;;;;;9.25;6.40;;;;;;;14.33;100.00;101988.47;6245735;23;20009;-78
2023/09/05 01:03:55;;;;;;;7.85;5.82;;;;;;;14.30;100.00;101978.25;6245503;23;20004;-78
2023/09/05 01:06:40;;;;;;;8.57;6.03;;;;;;;14.39;100.00;101990.69;6245688;23;20074;-78
2023/09/05 01:09:27;;;;;;;8.32;5.57;;;;;;;14.25;100.00;101981.13;6245467;23;20000;-78
2023/09/05 01:11:54;;;;;;;9.60;5.97;;;;;;;14.19;100.00;101980.69;6245434;23;20004;-78
2023/09/05 01:14:20;;;;;;;8.95;6.05;;;;;;;14.21;100.00;101984.00;6245348;23;20008;-78
2023/09/05 01:16:46;;;;;;;8.65;6.60;;;;;;;14.24;100.00;101991.63;6245509;23;20031;-78
2023/09/05 01:19:17;;;;;;;8.55;6.97;;;;;;;14.19;100.00;101975.47;6245627;23;20071;-78
2023/09/05 01:22:09;;;;;;;10.57;6.37;;;;;;;14.24;100.00;101983.81;6245545;23;20043;-78
2023/09/05 01:24:35;;;;;;;10.50;6.70;;;;;;;14.12;100.00;101975.00;6242433;23;20004;-78
2023/09/05 01:27:01;;;;;;;9.52;6.20;;;;;;;14.12;100.00;101967.22;6245719;23;20001;-79
2023/09/05 01:29:35;;;;;;;8.63;6.15;;;;;;;14.21;100.00;101990.03;6245154;23;20068;-78
2023/09/05 01:32:02;;;;;;;11.77;6.50;;;;;;;14.21;100.00;101987.44;6245487;23;20004;-78
2023/09/05 01:34:28;;;;;;;10.18;7.07;;;;;;;14.08;100.00;101960.53;6244965;23;20050;-77
2023/09/05 01:36:56;;;;;;;9.95;7.22;;;;;;;14.16;100.00;101981.69;6245080;23;20421;-78
2023/09/05 01:39:21;;;;;;;9.50;6.78;;;;;;;14.18;100.00;101989.41;6245460;23;20004;-79
2023/09/05 01:41:48;;;;;;;10.40;6.88;;;;;;;14.21;100.00;101990.03;6245593;23;20004;-80
2023/09/05 01:44:13;;;;;;;10.85;7.55;;;;;;;14.26;100.00;101985.41;6245537;23;20077;-78
2023/09/05 01:46:38;;;;;;;9.85;7.70;;;;;;;14.28;100.00;101987.91;6245363;23;20083;-78
2023/09/05 01:49:04;;;;;;;9.77;6.78;;;;;;;14.26;100.00;101988.03;6245503;23;20027;-79
2023/09/05 01:51:29;;;;;;;10.80;6.85;;;;;;;13.98;100.00;101949.84;6245212;23;20414;-78
2023/09/05 01:53:54;;;;;;;10.30;7.72;;;;;;;14.24;100.00;101989.84;6245100;23;20004;-77
2023/09/05 01:56:20;;;;;;;9.32;6.47;;;;;;;14.24;100.00;101991.63;6245300;23;20047;-78
2023/09/05 01:58:45;;;;;;;8.10;6.63;;;;;;;14.13;100.00;101975.84;6245457;23;20004;-78
2023/09/05 02:01:10;;;;;;;9.32;6.97;;;;;;;14.18;100.00;101994.59;6245244;23;20008;-78
2023/09/05 02:03:36;;;;;;;10.48;6.45;;;;;;;14.13;100.00;101996.63;6244984;23;20005;-79
2023/09/05 02:06:01;;;;;;;9.80;7.10;;;;;;;13.96;100.00;101977.69;6245187;23;20011;-81
2023/09/05 02:08:26;;;;;;;9.73;6.90;;;;;;;14.14;100.00;101993.91;6245210;23;20000;-80
2023/09/05 02:10:51;;;;;;;9.45;7.47;;;;;;;14.03;100.00;101965.16;6245649;23;20005;-80
2023/09/05 02:13:17;;;;;;;9.32;6.90;;;;;;;14.19;100.00;101989.31;6246941;23;20011;-81
2023/09/05 02:15:43;;;;;;;10.02;6.97;;;;;;;14.21;100.00;101991.81;6247071;23;20432;-77
2023/09/05 02:18:10;;;;;;;9.95;7.20;;;;;;;14.17;100.00;101972.97;6247307;23;20381;-80
2023/09/05 02:20:37;;;;;;;8.43;6.72;;;;;;;14.16;100.00;101973.91;6247287;23;20042;-79
2023/09/05 02:23:17;;;;;;;12.38;6.93;;;;;;;13.88;100.00;101937.50;6245833;22;20087;-79
2023/09/05 02:25:56;;;;;;;9.57;7.20;;;;;;;14.17;100.00;101985.13;6247079;23;20046;-81
2023/09/05 02:28:29;;;;;;;8.93;6.82;;;;;;;13.62;100.00;101882.75;6247063;23;20072;-80
2023/09/05 02:30:57;;;;;;;10.38;7.45;;;;;;;14.19;100.00;101963.31;6247116;23;20008;-81
2023/09/05 02:33:22;;;;;;;9.82;6.93;;;;;;;14.33;100.00;101975.47;6246986;23;20024;-80
2023/09/05 02:35:48;;;;;;;9.90;7.15;;;;;;;14.41;100.00;101988.00;6246818;23;20441;-81
2023/09/05 02:38:14;;;;;;;9.15;6.80;;;;;;;14.28;100.00;101962.78;6246839;23;20015;-80
2023/09/05 02:40:44;;;;;;;11.75;6.78;;;;;;;14.47;100.00;101982.47;6247036;23;20078;-81
2023/09/05 02:43:09;;;;;;;9.23;6.30;;;;;;;14.49;100.00;101985.81;6219704;23;20008;-80
2023/09/05 02:45:35;;;;;;;10.43;6.53;;;;;;;14.54;100.00;101984.59;6246880;23;20058;-79
2023/09/05 02:48:00;;;;;;;8.18;6.22;;;;;;;14.47;100.00;101967.72;6246992;23;20046;-80
2023/09/05 02:50:25;;;;;;;10.07;6.57;;;;;;;14.39;100.00;101959.53;6246918;23;20011;-81
2023/09/05 02:52:51;;;;;;;9.65;6.13;;;;;;;14.62;100.00;101976.31;6246616;23;20004;-79
2023/09/05 02:55:16;;;;;;;8.25;5.90;;;;;;;14.63;100.00;101968.44;6246605;23;20011;-79
2023/09/05 02:57:41;;;;;;;10.07;6.25;;;;;;;14.56;100.00;101954.16;6246830;23;20004;-81
2023/09/05 03:00:07;;;;;;;9.55;5.90;;;;;;;14.54;100.00;101945.59;6246996;23;20073;-79
2023/09/05 03:02:34;;;;;;;7.53;5.93;;;;;;;14.45;100.00;101946.16;6247021;23;20019;-80
2023/09/05 03:04:59;;;;;;;9.43;6.10;;;;;;;14.50;100.00;101959.72;6246670;23;20326;-79
2023/09/05 03:07:24;;;;;;;8.25;5.88;;;;;;;14.50;100.00;101954.53;6246434;23;20005;-80
2023/09/05 03:09:51;;;;;;;8.98;5.18;;;;;;;14.53;100.00;101958.69;6246573;23;20000;-78
2023/09/05 03:12:16;;;;;;;12.05;5.30;;;;;;;14.49;100.00;101957.22;6246884;23;20032;-80
2023/09/05 03:14:41;;;;;;;7.13;5.20;;;;;;;14.45;100.00;101934.94;6246499;23;20008;-79
2023/09/05 03:17:09;;;;;;;8.60;5.63;;;;;;;14.59;100.00;101958.34;6246706;23;20012;-78
2023/09/05 03:19:36;;;;;;;9.07;5.00;;;;;;;14.48;100.00;101927.81;6246995;23;20015;-80
2023/09/05 03:22:01;;;;;;;8.55;5.28;;;;;;;14.78;100.00;101960.63;6246410;23;20004;-79
2023/09/05 03:24:27;;;;;;;9.80;5.30;;;;;;;14.79;100.00;101957.91;6245732;23;20035;-79
2023/09/05 03:26:52;;;;;;;7.43;5.07;;;;;;;14.79;100.00;101960.53;6246726;23;20008;-80
2023/09/05 03:29:18;;;;;;;7.25;4.97;;;;;;;14.76;100.00;101952.09;6246604;23;20004;-79
2023/09/05 03:31:43;;;;;;;8.55;5.20;;;;;;;14.82;100.00;101952.53;6219614;23;20449;-79
2023/09/05 03:34:09;;;;;;;8.75;5.20;;;;;;;14.78;100.00;101939.81;6246137;23;20000;-80
2023/09/05 03:36:35;;;;;;;8.68;5.10;;;;;;;14.84;100.00;101948.06;6246574;23;20023;-78
2023/09/05 03:39:00;;;;;;;7.55;4.97;;;;;;;14.68;100.00;101929.16;6246027;23;20012;-80
2023/09/05 03:41:25;;;;;;;7.05;5.05;;;;;;;14.79;100.00;101947.53;6246240;23;20441;-79
2023/09/05 03:43:51;;;;;;;7.88;5.03;;;;;;;14.71;100.00;101939.34;6246391;23;20058;-79
2023/09/05 03:46:16;;;;;;;7.32;4.88;;;;;;;14.57;100.00;101934.19;6246078;23;20008;-78
2023/09/05 03:48:41;;;;;;;7.18;5.10;;;;;;;14.61;100.00;101949.50;6246213;23;20067;-79
2023/09/05 03:51:07;;;;;;;9.77;5.38;;;;;;;14.47;100.00;101933.09;6246478;23;20012;-79
2023/09/05 03:53:32;;;;;;;8.45;5.65;;;;;;;14.45;100.00;101938.38;6245748;23;20000;-80
2023/09/05 03:55:58;;;;;;;7.47;4.65;;;;;;;14.47;100.00;101946.94;6245819;23;20083;-79
2023/09/05 03:58:23;;;;;;;7.88;5.30;;;;;;;14.39;100.00;101946.53;6246538;23;20007;-79
2023/09/05 04:00:48;;;;;;;9.40;5.57;;;;;;;14.32;100.00;101947.81;6246510;23;20414;-78
2023/09/05 04:03:14;;;;;;;9.80;5.75;;;;;;;14.17;100.00;101923.63;6246210;23;20037;-79
2023/09/05 04:05:40;;;;;;;7.13;5.30;;;;;;;14.19;100.00;101939.09;6245923;23;20004;-81
2023/09/05 04:08:06;;;;;;;9.50;5.78;;;;;;;14.10;100.00;101935.31;6218843;23;20024;-80
2023/09/05 04:10:32;;;;;;;8.43;5.88;;;;;;;14.14;100.00;101938.53;6245960;23;20495;-80
2023/09/05 04:12:57;;;;;;;9.82;5.93;;;;;;;14.07;100.00;101927.69;6245957;23;20004;-78
2023/09/05 04:15:23;;;;;;;8.68;5.60;;;;;;;14.14;100.00;101933.34;6246096;23;20004;-80
2023/09/05 04:17:50;;;;;;;8.63;6.10;;;;;;;14.05;100.00;101921.75;6219336;23;20009;-80
2023/09/05 04:20:16;;;;;;;11.13;6.13;;;;;;;13.99;100.00;101902.19;6245970;23;20000;-80
2023/09/05 04:22:41;;;;;;;9.10;6.50;;;;;;;14.05;100.00;101908.75;6245974;23;20050;-79
2023/09/05 04:25:07;;;;;;;12.32;7.07;;;;;;;14.11;100.00;101918.78;6245829;23;20436;-79
2023/09/05 04:27:32;;;;;;;10.85;6.82;;;;;;;13.99;100.00;101903.94;6245955;23;20014;-78
2023/09/05 04:29:58;;;;;;;12.00;7.05;;;;;;;14.13;100.00;101922.13;6246016;23;20000;-78
2023/09/05 04:32:32;;;;;;;10.63;6.22;;;;;;;14.10;100.00;101924.06;6246142;23;20070;-79
2023/09/05 04:35:02;;;;;;;11.93;7.55;;;;;;;14.13;100.00;101929.06;6245117;23;20008;-78
2023/09/05 04:37:28;;;;;;;12.90;6.90;;;;;;;14.09;100.00;101932.81;6245438;23;20019;-79
2023/09/05 04:39:54;;;;;;;11.10;7.00;;;;;;;13.98;100.00;101915.25;6245248;23;20086;-78
2023/09/05 04:42:20;;;;;;;9.63;6.50;;;;;;;13.97;100.00;101905.81;6246108;23;20036;-78
2023/09/05 04:44:46;;;;;;;12.18;7.05;;;;;;;14.05;100.00;101927.75;6218188;23;20020;-80
2023/09/05 04:47:21;;;;;;;9.75;6.15;;;;;;;14.10;100.00;101930.09;6245969;23;20004;-79
2023/09/05 04:49:51;;;;;;;10.40;7.00;;;;;;;14.10;100.00;101924.06;6245340;23;20015;-79
2023/09/05 04:52:17;;;;;;;9.48;6.22;;;;;;;14.02;100.00;101916.75;6245440;23;20000;-81
2023/09/05 04:54:42;;;;;;;10.80;6.68;;;;;;;14.11;100.00;101920.53;6245433;23;20000;-80
2023/09/05 04:57:10;;;;;;;10.55;6.30;;;;;;;14.09;100.00;101917.22;6245384;23;20007;-79
2023/09/05 04:59:36;;;;;;;10.18;6.45;;;;;;;13.88;100.00;101883.81;6245593;23;20003;-78
2023/09/05 05:02:01;;;;;;;10.38;6.30;;;;;;;14.16;100.00;101924.56;6245308;23;20008;-78
2023/09/05 05:04:26;;;;;;;11.80;6.85;;;;;;;14.05;100.00;101896.59;6245406;23;20011;-77
2023/09/05 05:06:52;;;;;;;10.38;6.22;;;;;;;14.25;100.00;101916.16;6245653;23;20071;-78
2023/09/05 05:09:17;;;;;;;8.45;5.78;;;;;;;14.24;100.00;101917.09;6245368;23;20406;-78
2023/09/05 05:11:43;;;;;;;8.90;6.45;;;;;;;14.13;100.00;101898.75;6245434;23;20007;-79
2023/09/05 05:14:08;;;;;;;9.27;5.78;;;;;;;14.13;100.00;101906.53;6245365;23;20007;-78
2023/09/05 05:16:33;;;;;;;9.15;6.10;;;;;;;14.28;100.00;101925.56;6245692;23;20015;-79
2023/09/05 05:18:59;;;;;;;11.35;5.88;;;;;;;14.45;100.00;101920.16;6245817;23;20047;-77
2023/09/05 05:21:24;;;;;;;9.05;5.28;;;;;;;14.64;100.00;101923.31;6245383;23;20429;-80
2023/09/05 05:23:49;;;;;;;8.77;5.75;;;;;;;14.78;100.00;101935.44;6245044;23;20012;-79
2023/09/05 05:26:14;;;;;;;7.38;5.07;;;;;;;14.94;100.00;101930.09;6245210;23;20079;-79
2023/09/05 05:28:41;;;;;;;7.18;4.75;;;;;;;15.07;100.00;101932.78;6245444;23;20038;-80
2023/09/05 05:31:13;;;;;;;5.90;4.47;;;;;;;15.17;100.00;101936.44;6245241;23;20004;-80
2023/09/05 05:33:39;;;;;;;7.70;5.03;;;;;;;15.11;100.00;101935.06;6245275;23;20014;-79
2023/09/05 05:36:04;;;;;;;6.95;4.45;;;;;;;15.29;100.00;101933.03;6245572;23;20437;-80
2023/09/05 05:38:30;;;;;;;9.25;5.30;;;;;;;15.23;100.00;101936.03;6244955;23;20011;-79
2023/09/05 05:40:57;;;;;;;7.07;5.00;;;;;;;15.27;100.00;101940.13;6244933;23;20000;-79
2023/09/05 05:43:22;;;;;;;7.95;4.95;;;;;;;15.36;100.00;101943.91;6245381;23;20083;-80
2023/09/05 05:45:52;;;;;;;8.98;4.82;;;;;;;15.32;100.00;101919.81;6245651;23;20134;-79
2023/09/05 05:48:17;;;;;;;6.75;5.05;;;;;;;15.51;100.00;101940.28;6247711;23;20004;-79
2023/09/05 05:50:43;;;;;;;7.15;4.75;;;;;;;15.52;100.00;101941.09;6247694;23;20329;-80
2023/09/05 05:53:08;;;;;;;8.38;5.20;;;;;;;15.53;100.00;101935.78;6247231;23;20004;-80
2023/09/05 05:55:34;;;;;;;7.80;5.18;;;;;;;15.57;100.00;101937.28;6246935;23;20015;-79
2023/09/05 05:58:00;;;;;;;7.07;4.82;;;;;;;15.15;100.00;101849.84;6220088;23;20011;-79
2023/09/05 06:00:27;;;;;;;7.07;5.10;;;;;;;15.73;100.00;101947.50;6247344;23;20011;-79
2023/09/05 06:02:52;;;;;;;6.35;4.10;;;;;;;15.88;100.00;101950.88;6246153;23;20075;-78
2023/09/05 06:05:17;;;;;;;10.48;6.03;;;;;;;15.99;100.00;101940.56;6248146;23;20068;-78
2023/09/05 06:07:43;;;;;;;7.47;4.63;;;;;;;16.15;100.00;101935.97;6247333;23;20012;-78
2023/09/05 06:10:08;;;;;;;7.35;4.47;;;;;;;16.18;100.00;101934.94;6246314;23;20417;-75
2023/09/05 06:12:34;;;;;;;7.55;4.40;;;;;;;16.62;100.00;101947.47;6246875;23;20365;-76
2023/09/05 06:15:00;;;;;;;8.95;4.35;;;;;;;17.52;97.62;101919.22;6219687;23;20429;-78
2023/09/05 06:17:25;;;;;;;7.68;3.75;;;;;;;18.72;93.43;101938.66;6247167;23;20004;-78
2023/09/05 06:19:50;;;;;;;6.15;3.90;;;;;;;20.09;83.79;101938.72;6246886;23;20011;-80
2023/09/05 06:22:17;;;;;;;8.07;4.38;;;;;;;20.86;79.90;101945.06;6246694;23;20011;-79
2023/09/05 06:24:42;;;;;;;6.93;3.90;;;;;;;21.18;76.35;101947.44;6219188;23;20016;-79
2023/09/05 06:27:10;;;;;;;5.22;3.72;;;;;;;22.37;70.94;101951.34;6218997;23;20115;-77
2023/09/05 06:29:48;;;;;;;5.93;3.20;;;;;;;23.52;70.32;101925.13;6247306;23;20004;-77
2023/09/05 06:32:13;;;;;;;5.00;3.35;;;;;;;24.63;60.71;101931.28;6246883;23;20385;-79
2023/09/05 06:34:40;;;;;;;6.30;3.58;;;;;;;25.53;55.81;101939.28;6219728;23;20004;-75
2023/09/05 06:37:05;;;;;;;8.48;3.63;;;;;;;26.11;51.41;101941.63;6247175;23;20024;-76
2023/09/05 06:39:34;;;;;;;6.30;3.67;;;;;;;26.62;50.29;101942.06;6246993;23;20004;-76
2023/09/05 06:41:59;;;;;;;5.75;3.53;;;;;;;26.91;47.47;101936.09;6246621;23;20418;-76
2023/09/05 06:44:28;;;;;;;6.15;3.20;;;;;;;27.44;47.95;101937.00;6247459;23;20011;-77
2023/09/05 06:46:53;;;;;;;6.10;3.38;;;;;;;27.72;47.42;101918.66;6246930;23;20010;-77
2023/09/05 06:49:19;;;;;;;7.32;3.72;;;;;;;28.14;44.75;101935.75;6246869;23;20391;-77
2023/09/05 06:51:44;;;;;;;4.28;2.95;;;;;;;28.36;43.49;101926.03;6246831;23;20004;-77
2023/09/05 06:54:09;;;;;;;6.82;3.47;;;;;;;28.40;41.88;101916.66;6246381;23;20012;-77
2023/09/05 06:56:35;;;;;;;5.55;3.13;;;;;;;28.28;43.87;101935.75;6246362;23;20007;-76
2023/09/05 06:59:00;;;;;;;7.30;3.35;;;;;;;28.37;42.24;101940.97;6247088;23;20004;-77
2023/09/05 07:01:25;;;;;;;7.63;3.60;;;;;;;28.16;41.67;101921.28;6246856;23;20008;-78
2023/09/05 07:03:50;;;;;;;5.88;2.95;;;;;;;27.39;44.60;101924.28;6246780;23;20023;-77
2023/09/05 07:06:18;;;;;;;5.28;3.17;;;;;;;25.71;47.27;101929.38;6246666;23;20468;-77
2023/09/05 07:08:45;;;;;;;5.82;3.40;;;;;;;24.11;53.91;101907.69;6246509;23;20062;-77
2023/09/05 07:11:10;;;;;;;6.28;3.50;;;;;;;23.01;58.16;101920.59;6246495;23;20039;-77
2023/09/05 07:13:35;;;;;;;6.18;4.10;;;;;;;21.39;60.09;101829.06;6245759;22;20008;-78
2023/09/05 07:16:01;;;;;;;5.32;3.42;;;;;;;21.35;64.89;101924.91;6246779;23;20031;-77
2023/09/05 07:18:26;;;;;;;6.47;3.63;;;;;;;20.88;67.62;101927.38;6246508;23;20004;-77
2023/09/05 07:20:51;;;;;;;6.40;3.90;;;;;;;20.57;70.23;101928.44;6246985;23;20425;-74
2023/09/05 07:23:17;;;;;;;6.07;3.50;;;;;;;20.34;72.47;101928.59;6245060;23;20028;-76
2023/09/05 07:25:42;;;;;;;5.15;3.78;;;;;;;20.11;73.99;101921.06;6247390;23;20376;-77
2023/09/05 07:28:07;;;;;;;6.28;3.80;;;;;;;19.81;75.19;101895.69;6246437;23;20318;-77
2023/09/05 07:30:33;;;;;;;5.68;3.42;;;;;;;19.87;76.33;101916.16;6246108;23;20010;-78
2023/09/05 07:32:59;;;;;;;6.70;4.15;;;;;;;19.69;75.37;101914.13;6246116;23;20007;-77
2023/09/05 07:35:25;;;;;;;6.57;4.00;;;;;;;19.58;77.39;101895.84;6246842;23;20008;-77
2023/09/05 07:37:51;;;;;;;6.72;4.22;;;;;;;19.68;77.50;101929.97;6246608;23;20004;-76
2023/09/05 07:40:16;;;;;;;9.80;4.53;;;;;;;19.65;77.55;101914.47;6246263;23;20008;-77
2023/09/05 07:42:42;;;;;;;7.45;3.67;;;;;;;19.68;78.79;101909.00;6218915;23;20008;-76
2023/09/05 07:45:12;;;;;;;6.30;4.22;;;;;;;19.53;77.52;101890.13;6246411;23;20004;-75
2023/09/05 07:47:37;;;;;;;7.35;3.97;;;;;;;19.72;78.12;101913.84;6246396;23;20001;-77
2023/09/05 07:50:03;;;;;;;6.38;3.95;;;;;;;19.49;76.99;101867.78;6219059;23;20011;-78
2023/09/05 07:52:28;;;;;;;8.00;4.00;;;;;;;19.75;79.85;101904.88;6246753;23;20317;-79
2023/09/05 07:54:54;;;;;;;10.00;4.88;;;;;;;19.78;79.48;101894.16;6219341;23;20004;-78
2023/09/05 07:57:19;;;;;;;6.25;3.85;;;;;;;19.91;78.66;101902.63;6245946;23;20000;-78
2023/09/05 07:59:44;;;;;;;7.70;3.95;;;;;;;19.94;80.33;101907.59;6246597;23;20007;-78
2023/09/05 08:02:10;;;;;;;7.82;4.07;;;;;;;19.88;80.07;101883.72;6246515;23;20081;-75
2023/09/05 08:04:38;;;;;;;7.25;3.75;;;;;;;20.04;78.39;101905.84;6218852;23;20008;-77
2023/09/05 08:07:04;;;;;;;6.18;3.88;;;;;;;20.16;78.68;101919.72;6246466;23;20054;-77
2023/09/05 08:09:29;;;;;;;6.18;3.53;;;;;;;20.17;76.94;101912.69;6245699;23;20000;-77
2023/09/05 08:11:55;;;;;;;5.45;3.67;;;;;;;20.20;77.02;101900.13;6246099;23;20000;-80
2023/09/05 08:14:20;;;;;;;6.40;3.55;;;;;;;20.29;77.69;101914.25;6244071;23;20441;-80
2023/09/05 08:16:46;;;;;;;8.10;3.80;;;;;;;20.42;76.60;101927.09;6247092;23;20011;-77
2023/09/05 08:19:11;;;;;;;6.75;3.47;;;;;;;20.51;76.51;101924.53;6246544;23;20031;-76
2023/09/05 08:21:36;;;;;;;7.20;3.50;;;;;;;20.46;77.29;101903.13;6245938;23;20104;-80
2023/09/05 08:24:01;;;;;;;6.05;3.42;;;;;;;20.63;79.70;101923.47;6219375;23;20000;-80
2023/09/05 08:26:27;;;;;;;7.97;3.13;;;;;;;20.70;76.98;101921.13;6245911;23;20004;-79
2023/09/05 08:28:52;;;;;;;4.85;3.22;;;;;;;20.80;77.74;101918.50;6245882;23;20054;-80
2023/09/05 08:31:18;;;;;;;7.28;3.63;;;;;;;20.88;78.05;101922.13;6218523;23;20088;-80
2023/09/05 08:33:43;;;;;;;5.32;3.28;;;;;;;20.95;76.84;101922.41;6246362;23;20000;-80
2023/09/05 08:36:09;;;;;;;5.68;3.28;;;;;;;21.06;76.59;101921.44;6245629;23;20031;-80
2023/09/05 08:38:39;;;;;;;6.72;3.17;;;;;;;21.03;76.80;101895.44;6245860;23;20213;-79
2023/09/05 08:41:06;;;;;;;4.45;2.90;;;;;;;21.19;75.52;101906.22;6245946;23;20000;-79
2023/09/05 08:43:32;;;;;;;6.20;3.00;;;;;;;21.23;72.27;101894.47;6219003;23;20004;-79
2023/09/05 08:46:00;;;;;;;5.53;3.35;;;;;;;21.43;75.55;101909.28;6219008;23;20000;-80
2023/09/05 08:48:26;;;;;;;4.85;3.00;;;;;;;21.48;73.69;101907.03;6245751;23;20027;-81
2023/09/05 08:50:54;;;;;;;5.45;3.42;;;;;;;21.45;71.21;101902.09;6245877;23;20008;-81
2023/09/05 08:53:28;;;;;;;6.25;3.08;;;;;;;21.36;70.52;101879.28;6245674;23;20000;-81
2023/09/05 08:55:54;;;;;;;5.72;3.20;;;;;;;21.55;70.39;101909.94;6218889;23;20027;-81
2023/09/05 08:58:21;;;;;;;6.32;3.08;;;;;;;21.64;71.18;101909.09;6245985;23;20011;-81
2023/09/05 09:00:46;;;;;;;5.00;3.15;;;;;;;21.75;70.34;101919.44;6245705;23;19996;-79
2023/09/05 09:03:12;;;;;;;5.15;3.20;;;;;;;21.71;70.49;101898.81;6245337;23;20058;-80
2023/09/05 09:05:37;;;;;;;5.53;2.85;;;;;;;21.86;70.05;101912.34;6245548;23;20039;-82
2023/09/05 09:08:03;;;;;;;6.15;2.72;;;;;;;21.99;69.98;101924.19;6245532;23;20402;-82
2023/09/05 09:10:30;;;;;;;4.88;3.05;;;;;;;22.01;69.57;101916.16;6245395;23;20077;-81
2023/09/05 09:13:13;;;;;;;6.18;2.88;;;;;;;22.09;70.85;101913.66;6245909;23;20008;-80
2023/09/05 09:15:46;;;;;;;5.55;2.80;;;;;;;22.08;68.22;101898.03;6243892;23;20022;-79
2023/09/05 09:18:13;;;;;;;4.32;2.65;;;;;;;22.06;68.59;101887.63;6246528;23;20055;-80
2023/09/05 09:20:46;;;;;;;5.97;2.47;;;;;;;22.18;69.39;101896.19;6246099;23;20004;-80
2023/09/05 09:23:27;;;;;;;4.68;2.65;;;;;;;22.39;68.78;101924.88;6245261;22;20012;-81
2023/09/05 09:25:55;;;;;;;;;;;;;;;22.42;70.58;101925.44;6245587;23;20014;-81
2023/09/05 09:28:43;;;;;;;5.88;2.95;;;;;;;22.57;68.98;101926.56;6245148;23;19914;-80
2023/09/05 09:31:11;;;;;;;5.53;2.53;;;;;;;22.66;64.50;101924.03;6245523;23;20015;-80
2023/09/05 09:33:37;;;;;;;6.10;2.90;;;;;;;22.73;65.40;101931.19;6245362;23;20425;-80
2023/09/05 09:36:05;;;;;;;6.10;2.50;;;;;;;22.81;65.68;101940.94;6245406;23;20004;-80
2023/09/05 09:38:31;;;;;;;5.53;2.47;;;;;;;22.59;64.75;101900.91;6245576;23;20035;-80
2023/09/05 09:41:01;;;;;;;5.32;2.70;;;;;;;22.88;66.02;101934.97;6245327;23;20742;-80
2023/09/05 09:43:27;;;;;;;6.05;2.78;;;;;;;23.00;65.72;101930.31;6245296;23;20058;-80
2023/09/05 09:45:53;;;;;;;5.70;2.80;;;;;;;22.94;63.92;101916.94;6245304;23;20000;-80
2023/09/05 09:48:21;;;;;;;6.05;2.78;;;;;;;23.07;63.83;101934.00;6245617;23;20031;-79
2023/09/05 09:50:48;;;;;;;6.80;2.30;;;;;;;23.27;67.45;101939.09;6245047;23;20031;-79
2023/09/05 09:53:18;;;;;;;4.93;2.55;;;;;;;23.21;62.92;101926.56;6218821;23;20001;-80
2023/09/05 09:55:44;;;;;;;5.78;2.58;;;;;;;23.31;65.13;101932.56;6245202;23;20032;-79
2023/09/05 09:58:14;;;;;;;4.65;2.50;;;;;;;23.38;64.52;101944.94;6217245;23;20008;-80
2023/09/05 10:00:44;;;;;;;4.83;2.80;;;;;;;23.46;63.77;101931.00;6245369;23;20000;-80
2023/09/05 10:03:10;;;;;;;5.03;2.38;;;;;;;23.29;62.28;101887.88;6218089;23;20396;-78
2023/09/05 10:05:41;;;;;;;7.68;2.50;;;;;;;23.40;63.53;101892.06;6245400;23;20000;-79
2023/09/05 10:08:10;;;;;;;8.60;2.60;;;;;;;23.60;63.43;101922.59;6245670;23;20368;-78
2023/09/05 10:10:40;;;;;;;5.75;2.70;;;;;;;23.58;65.45;101916.59;6245349;23;20012;-79
2023/09/05 10:13:09;;;;;;;4.80;2.35;;;;;;;23.71;68.21;101924.13;6243436;23;20325;-77
2023/09/05 10:15:41;;;;;;;5.22;2.40;;;;;;;23.85;67.38;101920.91;6245265;23;20079;-77
2023/09/05 10:18:12;;;;;;;4.35;2.20;;;;;;;23.71;62.77;101895.13;6245799;23;20016;-79
2023/09/05 10:20:39;;;;;;;;;;;;;;;23.82;64.91;101915.13;6245323;23;20001;-79
2023/09/05 10:23:05;;;;;;;5.95;2.40;;;;;;;23.87;60.63;101915.47;6264860;22;19918;-77
2023/09/05 10:25:32;;;;;;;4.95;2.50;;;;;;;23.94;63.30;101911.22;6275545;22;20008;-79
2023/09/05 10:27:58;;;;;;;4.20;2.30;;;;;;;23.94;62.94;101898.03;6275618;22;20322;-78
2023/09/05 10:30:23;;;;;;;6.70;2.13;;;;;;;24.16;59.23;101909.81;6275318;22;20004;-78
2023/09/05 10:32:51;;;;;;;3.90;2.45;;;;;;;24.23;62.67;101906.41;6276410;22;20007;-77
2023/09/05 10:35:18;;;;;;;8.18;2.40;;;;;;;24.15;59.64;101876.50;6277580;22;20337;-80
2023/09/05 10:37:49;;;;;;;5.43;2.67;;;;;;;24.24;60.65;101891.38;6277634;22;20004;-79
2023/09/05 10:40:15;;;;;;;6.75;2.65;;;;;;;24.31;59.52;101897.72;6277775;22;20307;-79
2023/09/05 10:42:50;;;;;;;5.20;2.33;;;;;;;24.44;62.41;101899.88;6277839;22;20011;-78
2023/09/05 10:45:29;;;;;;;5.65;2.60;;;;;;;24.46;60.79;101898.72;6277497;22;20015;-78
2023/09/05 10:48:17;;;;;;;4.53;2.40;;;;;;;24.48;61.34;101895.94;6277579;22;20318;-79
2023/09/05 10:51:05;;;;;;;5.72;2.67;;;;;;;24.53;60.42;101894.47;6277589;22;20452;-80
2023/09/05 10:53:30;;;;;;;4.22;2.50;;;;;;;24.59;59.48;101893.00;6277587;22;19999;-78
2023/09/05 10:55:57;;;;;;;5.95;2.40;;;;;;;24.63;59.63;101881.13;6277425;22;20014;-84
2023/09/05 10:58:56;;;;;;;3.95;1.98;;;;;;;24.69;57.99;101896.31;6277616;22;20004;-80
2023/09/05 11:01:29;;;;;;;4.57;2.40;;;;;;;24.82;58.48;101891.38;6277502;22;20000;-81
2023/09/05 11:03:55;;;;;;;7.05;2.35;;;;;;;24.89;58.28;101889.72;6250289;22;20441;-83
2023/09/05 11:06:21;;;;;;;6.75;2.50;;;;;;;24.96;56.99;101886.41;6277234;22;20035;-80
2023/09/05 11:09:01;;;;;;;3.88;2.33;;;;;;;24.94;58.21;101888.41;6277467;22;20022;-80
2023/09/05 11:11:26;;;;;;;4.80;2.05;;;;;;;25.03;56.33;101905.94;6277173;22;20004;-80
2023/09/05 11:13:52;;;;;;;4.72;2.45;;;;;;;24.86;58.15;101866.25;6277051;22;20006;-80
2023/09/05 11:16:17;;;;;;;4.57;2.45;;;;;;;24.23;56.44;101753.31;6219686;22;20017;-81
2023/09/05 11:18:58;;;;;;;5.00;2.60;;;;;;;24.76;59.79;101836.53;6186175;23;20005;-81